sensor_id;sensor_type;location;lat;lon;timestamp;P1;durP1;ratioP1;P2;durP2;ratioP2
58661;SDS011;44432;49.786;22.760;2022-07-06T00:00:53;9.70;;;6.50;;
58661;SDS011;44432;49.786;22.760;2022-07-06T00:03:24;6.60;;;5.50;;
58661;SDS011;44432;49.786;22.760;2022-07-06T00:05:55;9.90;;;6.30;;
58661;SDS011;44432;49.786;22.760;2022-07-06T00:08:26;7.10;;;6.10;;
58661;SDS011;44432;49.786;22.760;2022-07-06T00:10:56;7.70;;;6.20;;
58661;SDS011;44432;49.786;22.760;2022-07-06T00:13:27;6.30;;;5.70;;
58661;SDS011;44432;49.786;22.760;2022-07-06T00:15:58;7.30;;;6.10;;
58661;SDS011;44432;49.786;22.760;2022-07-06T00:18:29;7.10;;;6.30;;
58661;SDS011;44432;49.786;22.760;2022-07-06T00:20:59;8.80;;;6.90;;
58661;SDS011;44432;49.786;22.760;2022-07-06T00:23:30;6.90;;;6.20;;
58661;SDS011;44432;49.786;22.760;2022-07-06T00:26:01;6.90;;;6.20;;
58661;SDS011;44432;49.786;22.760;2022-07-06T00:28:32;7.20;;;6.10;;
58661;SDS011;44432;49.786;22.760;2022-07-06T00:31:02;7.20;;;5.80;;
58661;SDS011;44432;49.786;22.760;2022-07-06T00:33:34;7.50;;;6.10;;
58661;SDS011;44432;49.786;22.760;2022-07-06T00:36:04;7.40;;;5.70;;
58661;SDS011;44432;49.786;22.760;2022-07-06T00:38:35;6.50;;;5.60;;
58661;SDS011;44432;49.786;22.760;2022-07-06T00:41:06;6.90;;;6.20;;
58661;SDS011;44432;49.786;22.760;2022-07-06T00:43:50;7.80;;;6.50;;
58661;SDS011;44432;49.786;22.760;2022-07-06T00:46:25;7.60;;;6.40;;
58661;SDS011;44432;49.786;22.760;2022-07-06T00:48:59;8.40;;;6.30;;
58661;SDS011;44432;49.786;22.760;2022-07-06T00:51:30;6.90;;;5.60;;
58661;SDS011;44432;49.786;22.760;2022-07-06T00:54:04;8.80;;;5.40;;
58661;SDS011;44432;49.786;22.760;2022-07-06T00:56:35;6.90;;;5.60;;
58661;SDS011;44432;49.786;22.760;2022-07-06T00:59:06;7.50;;;5.20;;
58661;SDS011;44432;49.786;22.760;2022-07-06T01:01:37;7.90;;;5.80;;
58661;SDS011;44432;49.786;22.760;2022-07-06T01:04:07;8.40;;;6.40;;
58661;SDS011;44432;49.786;22.760;2022-07-06T01:06:38;9.00;;;6.80;;
58661;SDS011;44432;49.786;22.760;2022-07-06T01:09:09;9.20;;;6.80;;
58661;SDS011;44432;49.786;22.760;2022-07-06T01:11:40;8.00;;;6.70;;
58661;SDS011;44432;49.786;22.760;2022-07-06T01:14:10;7.40;;;6.60;;
58661;SDS011;44432;49.786;22.760;2022-07-06T01:16:42;11.40;;;6.80;;
58661;SDS011;44432;49.786;22.760;2022-07-06T01:19:13;6.60;;;5.80;;
58661;SDS011;44432;49.786;22.760;2022-07-06T01:21:44;7.30;;;6.30;;
58661;SDS011;44432;49.786;22.760;2022-07-06T01:24:14;6.80;;;6.10;;
58661;SDS011;44432;49.786;22.760;2022-07-06T01:26:45;6.20;;;5.50;;
58661;SDS011;44432;49.786;22.760;2022-07-06T01:29:15;6.60;;;6.00;;
58661;SDS011;44432;49.786;22.760;2022-07-06T01:31:46;8.50;;;6.90;;
58661;SDS011;44432;49.786;22.760;2022-07-06T01:34:18;12.10;;;8.90;;
58661;SDS011;44432;49.786;22.760;2022-07-06T01:36:49;8.10;;;6.90;;
58661;SDS011;44432;49.786;22.760;2022-07-06T01:39:19;7.50;;;6.50;;
58661;SDS011;44432;49.786;22.760;2022-07-06T01:41:50;10.00;;;9.00;;
58661;SDS011;44432;49.786;22.760;2022-07-06T01:44:21;7.50;;;6.70;;
58661;SDS011;44432;49.786;22.760;2022-07-06T01:46:51;12.60;;;10.40;;
58661;SDS011;44432;49.786;22.760;2022-07-06T01:49:22;7.20;;;6.50;;
58661;SDS011;44432;49.786;22.760;2022-07-06T01:51:52;8.80;;;7.00;;
58661;SDS011;44432;49.786;22.760;2022-07-06T01:54:23;9.40;;;6.60;;
58661;SDS011;44432;49.786;22.760;2022-07-06T01:56:53;8.00;;;7.20;;
58661;SDS011;44432;49.786;22.760;2022-07-06T01:59:24;7.10;;;6.30;;
58661;SDS011;44432;49.786;22.760;2022-07-06T02:01:55;8.00;;;6.10;;
58661;SDS011;44432;49.786;22.760;2022-07-06T02:04:25;6.90;;;6.00;;
58661;SDS011;44432;49.786;22.760;2022-07-06T02:06:56;7.10;;;5.80;;
58661;SDS011;44432;49.786;22.760;2022-07-06T02:09:26;6.80;;;6.10;;
58661;SDS011;44432;49.786;22.760;2022-07-06T02:11:57;7.30;;;6.30;;
58661;SDS011;44432;49.786;22.760;2022-07-06T02:14:27;8.90;;;6.50;;
58661;SDS011;44432;49.786;22.760;2022-07-06T02:16:58;8.40;;;6.50;;
58661;SDS011;44432;49.786;22.760;2022-07-06T02:19:29;10.30;;;8.00;;
58661;SDS011;44432;49.786;22.760;2022-07-06T02:21:59;6.90;;;5.60;;
58661;SDS011;44432;49.786;22.760;2022-07-06T02:24:30;7.70;;;5.40;;
58661;SDS011;44432;49.786;22.760;2022-07-06T02:27:00;6.50;;;5.80;;
58661;SDS011;44432;49.786;22.760;2022-07-06T02:29:31;6.70;;;5.40;;
58661;SDS011;44432;49.786;22.760;2022-07-06T02:32:02;7.10;;;5.50;;
58661;SDS011;44432;49.786;22.760;2022-07-06T02:34:33;7.00;;;5.20;;
58661;SDS011;44432;49.786;22.760;2022-07-06T02:37:04;6.30;;;5.70;;
58661;SDS011;44432;49.786;22.760;2022-07-06T02:39:34;5.90;;;5.30;;
58661;SDS011;44432;49.786;22.760;2022-07-06T02:42:05;6.40;;;5.40;;
58661;SDS011;44432;49.786;22.760;2022-07-06T02:44:36;5.70;;;5.10;;
58661;SDS011;44432;49.786;22.760;2022-07-06T02:47:07;6.10;;;4.40;;
58661;SDS011;44432;49.786;22.760;2022-07-06T02:49:38;5.10;;;4.60;;
58661;SDS011;44432;49.786;22.760;2022-07-06T02:52:08;5.40;;;4.10;;
58661;SDS011;44432;49.786;22.760;2022-07-06T02:54:39;6.40;;;4.20;;
58661;SDS011;44432;49.786;22.760;2022-07-06T02:57:09;7.80;;;4.60;;
58661;SDS011;44432;49.786;22.760;2022-07-06T02:59:40;8.50;;;4.80;;
58661;SDS011;44432;49.786;22.760;2022-07-06T03:02:10;8.70;;;4.00;;
58661;SDS011;44432;49.786;22.760;2022-07-06T03:04:41;6.50;;;3.50;;
58661;SDS011;44432;49.786;22.760;2022-07-06T03:07:12;4.20;;;3.30;;
58661;SDS011;44432;49.786;22.760;2022-07-06T03:09:42;5.10;;;2.80;;
58661;SDS011;44432;49.786;22.760;2022-07-06T03:12:13;3.70;;;2.20;;
58661;SDS011;44432;49.786;22.760;2022-07-06T03:14:43;4.70;;;2.50;;
58661;SDS011;44432;49.786;22.760;2022-07-06T03:17:14;4.30;;;2.20;;
58661;SDS011;44432;49.786;22.760;2022-07-06T03:19:45;4.20;;;1.70;;
58661;SDS011;44432;49.786;22.760;2022-07-06T03:22:15;3.30;;;1.50;;
58661;SDS011;44432;49.786;22.760;2022-07-06T03:24:46;4.50;;;1.30;;
58661;SDS011;44432;49.786;22.760;2022-07-06T03:27:17;2.60;;;1.60;;
58661;SDS011;44432;49.786;22.760;2022-07-06T03:29:47;3.50;;;1.30;;
58661;SDS011;44432;49.786;22.760;2022-07-06T03:32:18;2.40;;;1.50;;
58661;SDS011;44432;49.786;22.760;2022-07-06T03:34:48;3.30;;;1.10;;
58661;SDS011;44432;49.786;22.760;2022-07-06T03:37:19;5.10;;;1.10;;
58661;SDS011;44432;49.786;22.760;2022-07-06T03:39:50;2.60;;;1.20;;
58661;SDS011;44432;49.786;22.760;2022-07-06T03:42:20;3.00;;;1.20;;
58661;SDS011;44432;49.786;22.760;2022-07-06T03:44:51;5.00;;;1.30;;
58661;SDS011;44432;49.786;22.760;2022-07-06T03:47:21;6.30;;;1.70;;
58661;SDS011;44432;49.786;22.760;2022-07-06T03:49:52;7.00;;;1.00;;
58661;SDS011;44432;49.786;22.760;2022-07-06T03:52:23;4.90;;;1.30;;
58661;SDS011;44432;49.786;22.760;2022-07-06T03:54:53;1.60;;;0.90;;
58661;SDS011;44432;49.786;22.760;2022-07-06T03:57:24;3.80;;;1.10;;
58661;SDS011;44432;49.786;22.760;2022-07-06T03:59:54;1.90;;;0.60;;
58661;SDS011;44432;49.786;22.760;2022-07-06T04:02:26;2.10;;;0.90;;
58661;SDS011;44432;49.786;22.760;2022-07-06T04:04:57;1.20;;;0.80;;
58661;SDS011;44432;49.786;22.760;2022-07-06T04:07:27;4.10;;;1.10;;
58661;SDS011;44432;49.786;22.760;2022-07-06T04:09:58;3.40;;;1.10;;
58661;SDS011;44432;49.786;22.760;2022-07-06T04:12:28;1.60;;;0.70;;
58661;SDS011;44432;49.786;22.760;2022-07-06T04:14:59;2.20;;;1.00;;
58661;SDS011;44432;49.786;22.760;2022-07-06T04:17:30;0.90;;;0.60;;
58661;SDS011;44432;49.786;22.760;2022-07-06T04:20:18;1.40;;;0.70;;
58661;SDS011;44432;49.786;22.760;2022-07-06T04:22:49;2.10;;;0.70;;
58661;SDS011;44432;49.786;22.760;2022-07-06T04:25:20;1.90;;;0.60;;
58661;SDS011;44432;49.786;22.760;2022-07-06T04:27:51;2.70;;;0.70;;
58661;SDS011;44432;49.786;22.760;2022-07-06T04:30:22;2.00;;;0.70;;
58661;SDS011;44432;49.786;22.760;2022-07-06T04:32:52;0.90;;;0.60;;
58661;SDS011;44432;49.786;22.760;2022-07-06T04:35:23;0.80;;;0.50;;
58661;SDS011;44432;49.786;22.760;2022-07-06T04:37:54;1.60;;;0.60;;
58661;SDS011;44432;49.786;22.760;2022-07-06T04:40:24;1.20;;;0.70;;
58661;SDS011;44432;49.786;22.760;2022-07-06T04:42:55;1.70;;;0.50;;
58661;SDS011;44432;49.786;22.760;2022-07-06T04:45:26;0.80;;;0.50;;
58661;SDS011;44432;49.786;22.760;2022-07-06T04:47:56;0.70;;;0.50;;
58661;SDS011;44432;49.786;22.760;2022-07-06T04:50:27;1.70;;;0.50;;
58661;SDS011;44432;49.786;22.760;2022-07-06T04:52:59;0.50;;;0.50;;
58661;SDS011;44432;49.786;22.760;2022-07-06T04:55:30;1.00;;;0.40;;
58661;SDS011;44432;49.786;22.760;2022-07-06T04:58:00;1.00;;;0.30;;
58661;SDS011;44432;49.786;22.760;2022-07-06T05:00:31;0.30;;;0.30;;
58661;SDS011;44432;49.786;22.760;2022-07-06T05:03:02;0.50;;;0.40;;
58661;SDS011;44432;49.786;22.760;2022-07-06T05:05:32;4.00;;;0.40;;
58661;SDS011;44432;49.786;22.760;2022-07-06T05:08:03;1.70;;;0.50;;
58661;SDS011;44432;49.786;22.760;2022-07-06T05:10:34;0.50;;;0.40;;
58661;SDS011;44432;49.786;22.760;2022-07-06T05:13:04;0.60;;;0.50;;
58661;SDS011;44432;49.786;22.760;2022-07-06T05:15:35;0.80;;;0.60;;
58661;SDS011;44432;49.786;22.760;2022-07-06T05:18:05;0.60;;;0.40;;
58661;SDS011;44432;49.786;22.760;2022-07-06T05:20:36;2.30;;;0.70;;
58661;SDS011;44432;49.786;22.760;2022-07-06T05:23:07;1.20;;;0.40;;
58661;SDS011;44432;49.786;22.760;2022-07-06T05:25:37;1.30;;;0.60;;
58661;SDS011;44432;49.786;22.760;2022-07-06T05:28:08;0.70;;;0.40;;
58661;SDS011;44432;49.786;22.760;2022-07-06T05:30:38;2.10;;;0.70;;
58661;SDS011;44432;49.786;22.760;2022-07-06T05:33:09;1.20;;;0.70;;
58661;SDS011;44432;49.786;22.760;2022-07-06T05:35:39;0.80;;;0.40;;
58661;SDS011;44432;49.786;22.760;2022-07-06T05:38:10;1.50;;;0.60;;
58661;SDS011;44432;49.786;22.760;2022-07-06T05:40:41;1.40;;;0.50;;
58661;SDS011;44432;49.786;22.760;2022-07-06T05:43:11;0.80;;;0.50;;
58661;SDS011;44432;49.786;22.760;2022-07-06T05:45:42;3.90;;;0.60;;
58661;SDS011;44432;49.786;22.760;2022-07-06T05:48:13;0.70;;;0.40;;
58661;SDS011;44432;49.786;22.760;2022-07-06T05:51:01;1.00;;;0.50;;
58661;SDS011;44432;49.786;22.760;2022-07-06T05:53:32;1.10;;;0.50;;
58661;SDS011;44432;49.786;22.760;2022-07-06T05:56:02;1.30;;;0.60;;
58661;SDS011;44432;49.786;22.760;2022-07-06T05:58:33;0.30;;;0.30;;
58661;SDS011;44432;49.786;22.760;2022-07-06T06:01:04;0.50;;;0.50;;
58661;SDS011;44432;49.786;22.760;2022-07-06T06:03:35;0.40;;;0.40;;
58661;SDS011;44432;49.786;22.760;2022-07-06T06:06:06;0.90;;;0.40;;
58661;SDS011;44432;49.786;22.760;2022-07-06T06:08:36;1.90;;;0.80;;
58661;SDS011;44432;49.786;22.760;2022-07-06T06:11:07;0.90;;;0.70;;
58661;SDS011;44432;49.786;22.760;2022-07-06T06:13:38;1.70;;;0.90;;
58661;SDS011;44432;49.786;22.760;2022-07-06T06:16:08;1.20;;;0.50;;
58661;SDS011;44432;49.786;22.760;2022-07-06T06:18:39;1.50;;;0.50;;
58661;SDS011;44432;49.786;22.760;2022-07-06T06:21:10;1.00;;;0.60;;
58661;SDS011;44432;49.786;22.760;2022-07-06T06:23:40;1.70;;;1.10;;
58661;SDS011;44432;49.786;22.760;2022-07-06T06:26:11;1.30;;;0.90;;
58661;SDS011;44432;49.786;22.760;2022-07-06T06:28:41;1.40;;;0.80;;
58661;SDS011;44432;49.786;22.760;2022-07-06T06:31:12;2.50;;;0.70;;
58661;SDS011;44432;49.786;22.760;2022-07-06T06:33:43;0.60;;;0.60;;
58661;SDS011;44432;49.786;22.760;2022-07-06T06:36:14;0.70;;;0.70;;
58661;SDS011;44432;49.786;22.760;2022-07-06T06:38:45;0.70;;;0.70;;
58661;SDS011;44432;49.786;22.760;2022-07-06T06:41:15;1.30;;;0.90;;
58661;SDS011;44432;49.786;22.760;2022-07-06T06:43:48;2.30;;;1.00;;
58661;SDS011;44432;49.786;22.760;2022-07-06T06:46:19;2.20;;;0.80;;
58661;SDS011;44432;49.786;22.760;2022-07-06T06:48:49;1.40;;;0.90;;
58661;SDS011;44432;49.786;22.760;2022-07-06T06:51:20;1.60;;;0.60;;
58661;SDS011;44432;49.786;22.760;2022-07-06T06:53:50;1.30;;;1.00;;
58661;SDS011;44432;49.786;22.760;2022-07-06T06:56:21;4.80;;;1.10;;
58661;SDS011;44432;49.786;22.760;2022-07-06T06:58:51;3.70;;;0.70;;
58661;SDS011;44432;49.786;22.760;2022-07-06T07:01:22;1.00;;;0.80;;
58661;SDS011;44432;49.786;22.760;2022-07-06T07:03:53;2.20;;;1.00;;
58661;SDS011;44432;49.786;22.760;2022-07-06T07:06:24;1.50;;;0.90;;
58661;SDS011;44432;49.786;22.760;2022-07-06T07:08:54;1.40;;;0.80;;
58661;SDS011;44432;49.786;22.760;2022-07-06T07:11:25;1.40;;;0.70;;
58661;SDS011;44432;49.786;22.760;2022-07-06T07:13:56;1.30;;;0.80;;
58661;SDS011;44432;49.786;22.760;2022-07-06T07:16:28;2.00;;;1.80;;
58661;SDS011;44432;49.786;22.760;2022-07-06T07:18:59;1.10;;;0.80;;
58661;SDS011;44432;49.786;22.760;2022-07-06T07:21:29;1.00;;;0.90;;
58661;SDS011;44432;49.786;22.760;2022-07-06T07:24:00;2.70;;;1.10;;
58661;SDS011;44432;49.786;22.760;2022-07-06T07:26:31;1.40;;;0.70;;
58661;SDS011;44432;49.786;22.760;2022-07-06T07:29:02;2.30;;;1.20;;
58661;SDS011;44432;49.786;22.760;2022-07-06T07:31:32;3.60;;;1.10;;
58661;SDS011;44432;49.786;22.760;2022-07-06T07:34:03;1.00;;;0.90;;
58661;SDS011;44432;49.786;22.760;2022-07-06T07:36:34;1.90;;;0.80;;
58661;SDS011;44432;49.786;22.760;2022-07-06T07:39:04;3.60;;;0.80;;
58661;SDS011;44432;49.786;22.760;2022-07-06T07:41:35;5.30;;;1.30;;
58661;SDS011;44432;49.786;22.760;2022-07-06T07:44:06;4.40;;;0.90;;
58661;SDS011;44432;49.786;22.760;2022-07-06T07:46:36;2.80;;;1.10;;
58661;SDS011;44432;49.786;22.760;2022-07-06T07:49:07;3.50;;;0.90;;
58661;SDS011;44432;49.786;22.760;2022-07-06T07:51:37;1.30;;;0.70;;
58661;SDS011;44432;49.786;22.760;2022-07-06T07:54:09;1.50;;;0.70;;
58661;SDS011;44432;49.786;22.760;2022-07-06T07:56:39;3.80;;;1.00;;
58661;SDS011;44432;49.786;22.760;2022-07-06T07:59:10;1.20;;;1.10;;
58661;SDS011;44432;49.786;22.760;2022-07-06T08:01:41;2.90;;;0.90;;
58661;SDS011;44432;49.786;22.760;2022-07-06T08:04:12;3.20;;;0.80;;
58661;SDS011;44432;49.786;22.760;2022-07-06T08:06:43;9.30;;;1.00;;
58661;SDS011;44432;49.786;22.760;2022-07-06T08:09:13;4.00;;;0.80;;
58661;SDS011;44432;49.786;22.760;2022-07-06T08:11:45;6.50;;;1.00;;
58661;SDS011;44432;49.786;22.760;2022-07-06T08:14:16;0.90;;;0.80;;
58661;SDS011;44432;49.786;22.760;2022-07-06T08:16:46;3.40;;;0.80;;
58661;SDS011;44432;49.786;22.760;2022-07-06T08:19:17;0.70;;;0.70;;
58661;SDS011;44432;49.786;22.760;2022-07-06T08:21:48;4.00;;;0.80;;
58661;SDS011;44432;49.786;22.760;2022-07-06T08:24:18;6.70;;;0.90;;
58661;SDS011;44432;49.786;22.760;2022-07-06T08:26:49;3.20;;;0.90;;
58661;SDS011;44432;49.786;22.760;2022-07-06T08:29:20;1.30;;;0.70;;
58661;SDS011;44432;49.786;22.760;2022-07-06T08:31:50;1.30;;;1.00;;
58661;SDS011;44432;49.786;22.760;2022-07-06T08:34:21;0.80;;;0.60;;
58661;SDS011;44432;49.786;22.760;2022-07-06T08:36:52;2.30;;;0.90;;
58661;SDS011;44432;49.786;22.760;2022-07-06T08:39:23;1.90;;;0.80;;
58661;SDS011;44432;49.786;22.760;2022-07-06T08:41:53;1.60;;;1.00;;
58661;SDS011;44432;49.786;22.760;2022-07-06T08:44:27;1.10;;;0.90;;
58661;SDS011;44432;49.786;22.760;2022-07-06T08:46:59;1.60;;;0.70;;
58661;SDS011;44432;49.786;22.760;2022-07-06T08:49:33;3.30;;;1.00;;
58661;SDS011;44432;49.786;22.760;2022-07-06T08:52:06;5.00;;;1.70;;
58661;SDS011;44432;49.786;22.760;2022-07-06T08:54:38;3.20;;;1.40;;
58661;SDS011;44432;49.786;22.760;2022-07-06T08:57:10;2.10;;;1.30;;
58661;SDS011;44432;49.786;22.760;2022-07-06T08:59:41;2.60;;;0.90;;
58661;SDS011;44432;49.786;22.760;2022-07-06T09:02:12;3.00;;;0.70;;
58661;SDS011;44432;49.786;22.760;2022-07-06T09:04:43;1.30;;;0.80;;
58661;SDS011;44432;49.786;22.760;2022-07-06T09:07:15;1.80;;;1.00;;
58661;SDS011;44432;49.786;22.760;2022-07-06T09:09:48;2.60;;;1.10;;
58661;SDS011;44432;49.786;22.760;2022-07-06T09:12:20;2.00;;;0.90;;
58661;SDS011;44432;49.786;22.760;2022-07-06T09:14:51;2.50;;;1.10;;
58661;SDS011;44432;49.786;22.760;2022-07-06T09:17:26;1.20;;;1.10;;
58661;SDS011;44432;49.786;22.760;2022-07-06T09:19:57;4.10;;;1.80;;
58661;SDS011;44432;49.786;22.760;2022-07-06T09:22:29;1.70;;;1.20;;
58661;SDS011;44432;49.786;22.760;2022-07-06T09:25:07;4.50;;;1.00;;
58661;SDS011;44432;49.786;22.760;2022-07-06T09:27:40;1.40;;;1.10;;
58661;SDS011;44432;49.786;22.760;2022-07-06T09:30:15;1.70;;;1.30;;
58661;SDS011;44432;49.786;22.760;2022-07-06T09:32:46;3.10;;;1.50;;
58661;SDS011;44432;49.786;22.760;2022-07-06T09:35:22;5.30;;;1.80;;
58661;SDS011;44432;49.786;22.760;2022-07-06T09:38:01;1.30;;;1.00;;
58661;SDS011;44432;49.786;22.760;2022-07-06T09:40:34;4.30;;;1.60;;
58661;SDS011;44432;49.786;22.760;2022-07-06T09:43:12;3.50;;;1.30;;
58661;SDS011;44432;49.786;22.760;2022-07-06T09:45:44;1.40;;;1.10;;
58661;SDS011;44432;49.786;22.760;2022-07-06T09:48:17;2.30;;;1.30;;
58661;SDS011;44432;49.786;22.760;2022-07-06T09:50:50;2.20;;;1.00;;
58661;SDS011;44432;49.786;22.760;2022-07-06T09:53:22;2.10;;;1.00;;
58661;SDS011;44432;49.786;22.760;2022-07-06T09:55:54;2.20;;;1.10;;
58661;SDS011;44432;49.786;22.760;2022-07-06T09:58:26;1.60;;;1.00;;
58661;SDS011;44432;49.786;22.760;2022-07-06T10:00:57;2.10;;;1.00;;
58661;SDS011;44432;49.786;22.760;2022-07-06T10:03:27;1.70;;;1.20;;
58661;SDS011;44432;49.786;22.760;2022-07-06T10:05:59;1.70;;;1.10;;
58661;SDS011;44432;49.786;22.760;2022-07-06T10:08:30;2.00;;;1.00;;
58661;SDS011;44432;49.786;22.760;2022-07-06T10:11:02;2.60;;;1.20;;
58661;SDS011;44432;49.786;22.760;2022-07-06T10:13:34;2.80;;;0.80;;
58661;SDS011;44432;49.786;22.760;2022-07-06T10:16:05;5.90;;;1.00;;
58661;SDS011;44432;49.786;22.760;2022-07-06T10:18:37;3.60;;;1.10;;
58661;SDS011;44432;49.786;22.760;2022-07-06T10:21:08;3.40;;;1.10;;
58661;SDS011;44432;49.786;22.760;2022-07-06T10:23:40;0.80;;;0.80;;
58661;SDS011;44432;49.786;22.760;2022-07-06T10:26:11;2.50;;;1.10;;
58661;SDS011;44432;49.786;22.760;2022-07-06T10:28:42;1.70;;;1.10;;
58661;SDS011;44432;49.786;22.760;2022-07-06T10:31:15;4.30;;;1.00;;
58661;SDS011;44432;49.786;22.760;2022-07-06T10:33:46;1.60;;;1.20;;
58661;SDS011;44432;49.786;22.760;2022-07-06T10:36:17;1.30;;;0.90;;
58661;SDS011;44432;49.786;22.760;2022-07-06T10:38:49;2.70;;;1.30;;
58661;SDS011;44432;49.786;22.760;2022-07-06T10:41:31;2.80;;;1.30;;
58661;SDS011;44432;49.786;22.760;2022-07-06T10:44:15;1.60;;;1.10;;
58661;SDS011;44432;49.786;22.760;2022-07-06T10:49:22;1.70;;;1.10;;
58661;SDS011;44432;49.786;22.760;2022-07-06T10:51:54;3.30;;;1.40;;
58661;SDS011;44432;49.786;22.760;2022-07-06T10:54:26;3.40;;;1.30;;
58661;SDS011;44432;49.786;22.760;2022-07-06T10:57:10;3.40;;;1.80;;
58661;SDS011;44432;49.786;22.760;2022-07-06T10:59:42;1.30;;;1.20;;
58661;SDS011;44432;49.786;22.760;2022-07-06T11:02:38;2.80;;;1.30;;
58661;SDS011;44432;49.786;22.760;2022-07-06T11:05:11;4.00;;;1.20;;
58661;SDS011;44432;49.786;22.760;2022-07-06T11:08:10;3.10;;;1.70;;
58661;SDS011;44432;49.786;22.760;2022-07-06T11:10:49;4.90;;;1.30;;
58661;SDS011;44432;49.786;22.760;2022-07-06T11:13:26;1.30;;;1.20;;
58661;SDS011;44432;49.786;22.760;2022-07-06T11:16:01;2.10;;;1.20;;
58661;SDS011;44432;49.786;22.760;2022-07-06T11:18:39;2.90;;;1.10;;
58661;SDS011;44432;49.786;22.760;2022-07-06T11:21:20;3.40;;;1.50;;
58661;SDS011;44432;49.786;22.760;2022-07-06T11:23:52;2.40;;;1.20;;
58661;SDS011;44432;49.786;22.760;2022-07-06T11:26:23;2.60;;;1.20;;
58661;SDS011;44432;49.786;22.760;2022-07-06T11:28:55;4.00;;;1.30;;
58661;SDS011;44432;49.786;22.760;2022-07-06T11:31:28;1.90;;;1.40;;
58661;SDS011;44432;49.786;22.760;2022-07-06T11:34:01;1.20;;;1.10;;
58661;SDS011;44432;49.786;22.760;2022-07-06T11:36:32;2.80;;;1.10;;
58661;SDS011;44432;49.786;22.760;2022-07-06T11:39:03;1.90;;;1.00;;
58661;SDS011;44432;49.786;22.760;2022-07-06T11:41:34;2.70;;;1.10;;
58661;SDS011;44432;49.786;22.760;2022-07-06T11:44:05;3.10;;;1.10;;
58661;SDS011;44432;49.786;22.760;2022-07-06T11:46:36;3.10;;;1.10;;
58661;SDS011;44432;49.786;22.760;2022-07-06T11:49:07;2.70;;;1.10;;
58661;SDS011;44432;49.786;22.760;2022-07-06T11:51:39;2.50;;;1.20;;
58661;SDS011;44432;49.786;22.760;2022-07-06T11:54:11;3.00;;;1.50;;
58661;SDS011;44432;49.786;22.760;2022-07-06T11:56:47;2.10;;;1.20;;
58661;SDS011;44432;49.786;22.760;2022-07-06T11:59:24;2.70;;;1.10;;
58661;SDS011;44432;49.786;22.760;2022-07-06T12:01:59;2.30;;;1.40;;
58661;SDS011;44432;49.786;22.760;2022-07-06T12:04:32;3.70;;;1.40;;
58661;SDS011;44432;49.786;22.760;2022-07-06T12:07:05;2.70;;;1.10;;
58661;SDS011;44432;49.786;22.760;2022-07-06T12:09:37;2.30;;;0.90;;
58661;SDS011;44432;49.786;22.760;2022-07-06T12:12:10;1.70;;;1.10;;
58661;SDS011;44432;49.786;22.760;2022-07-06T12:14:42;3.70;;;0.90;;
58661;SDS011;44432;49.786;22.760;2022-07-06T12:17:13;6.70;;;1.20;;
58661;SDS011;44432;49.786;22.760;2022-07-06T12:19:44;1.30;;;0.90;;
58661;SDS011;44432;49.786;22.760;2022-07-06T12:22:25;2.20;;;1.10;;
58661;SDS011;44432;49.786;22.760;2022-07-06T12:24:55;3.40;;;1.20;;
58661;SDS011;44432;49.786;22.760;2022-07-06T12:27:26;1.90;;;1.00;;
58661;SDS011;44432;49.786;22.760;2022-07-06T12:30:09;2.80;;;1.10;;
58661;SDS011;44432;49.786;22.760;2022-07-06T12:32:40;3.40;;;1.70;;
58661;SDS011;44432;49.786;22.760;2022-07-06T12:35:11;3.10;;;1.50;;
58661;SDS011;44432;49.786;22.760;2022-07-06T12:37:55;1.60;;;1.30;;
58661;SDS011;44432;49.786;22.760;2022-07-06T12:40:27;2.70;;;1.40;;
58661;SDS011;44432;49.786;22.760;2022-07-06T12:42:57;2.90;;;1.80;;
58661;SDS011;44432;49.786;22.760;2022-07-06T12:45:28;2.30;;;1.50;;
58661;SDS011;44432;49.786;22.760;2022-07-06T12:47:59;3.30;;;1.50;;
58661;SDS011;44432;49.786;22.760;2022-07-06T12:50:31;3.40;;;1.60;;
58661;SDS011;44432;49.786;22.760;2022-07-06T12:53:03;2.10;;;1.50;;
58661;SDS011;44432;49.786;22.760;2022-07-06T12:58:38;4.30;;;1.50;;
58661;SDS011;44432;49.786;22.760;2022-07-06T13:01:22;4.90;;;1.70;;
58661;SDS011;44432;49.786;22.760;2022-07-06T13:03:56;3.10;;;1.70;;
58661;SDS011;44432;49.786;22.760;2022-07-06T13:06:28;2.60;;;1.40;;
58661;SDS011;44432;49.786;22.760;2022-07-06T13:09:00;2.20;;;1.60;;
58661;SDS011;44432;49.786;22.760;2022-07-06T13:11:30;3.10;;;1.60;;
58661;SDS011;44432;49.786;22.760;2022-07-06T13:14:01;3.10;;;1.60;;
58661;SDS011;44432;49.786;22.760;2022-07-06T13:16:31;1.90;;;1.50;;
58661;SDS011;44432;49.786;22.760;2022-07-06T13:19:03;4.50;;;1.70;;
58661;SDS011;44432;49.786;22.760;2022-07-06T13:21:33;3.80;;;1.60;;
58661;SDS011;44432;49.786;22.760;2022-07-06T13:24:05;2.20;;;1.70;;
58661;SDS011;44432;49.786;22.760;2022-07-06T13:26:36;1.90;;;1.40;;
58661;SDS011;44432;49.786;22.760;2022-07-06T13:29:07;2.40;;;1.50;;
58661;SDS011;44432;49.786;22.760;2022-07-06T13:31:39;2.80;;;1.50;;
58661;SDS011;44432;49.786;22.760;2022-07-06T13:34:10;1.80;;;1.60;;
58661;SDS011;44432;49.786;22.760;2022-07-06T13:36:41;3.50;;;1.90;;
58661;SDS011;44432;49.786;22.760;2022-07-06T13:39:12;2.60;;;1.80;;
58661;SDS011;44432;49.786;22.760;2022-07-06T13:41:44;2.80;;;1.90;;
58661;SDS011;44432;49.786;22.760;2022-07-06T13:44:15;2.70;;;1.70;;
58661;SDS011;44432;49.786;22.760;2022-07-06T13:46:46;3.20;;;2.00;;
58661;SDS011;44432;49.786;22.760;2022-07-06T13:49:17;2.80;;;2.00;;
58661;SDS011;44432;49.786;22.760;2022-07-06T13:51:48;2.30;;;1.60;;
58661;SDS011;44432;49.786;22.760;2022-07-06T13:54:18;4.40;;;2.20;;
58661;SDS011;44432;49.786;22.760;2022-07-06T13:56:49;4.20;;;1.90;;
58661;SDS011;44432;49.786;22.760;2022-07-06T13:59:19;8.10;;;2.10;;
58661;SDS011;44432;49.786;22.760;2022-07-06T14:01:50;3.10;;;2.30;;
58661;SDS011;44432;49.786;22.760;2022-07-06T14:04:20;4.50;;;2.30;;
58661;SDS011;44432;49.786;22.760;2022-07-06T14:06:51;3.30;;;3.00;;
58661;SDS011;44432;49.786;22.760;2022-07-06T14:09:22;3.40;;;2.30;;
58661;SDS011;44432;49.786;22.760;2022-07-06T14:11:52;6.30;;;2.50;;
58661;SDS011;44432;49.786;22.760;2022-07-06T14:14:23;2.90;;;2.10;;
58661;SDS011;44432;49.786;22.760;2022-07-06T14:16:53;3.60;;;3.00;;
58661;SDS011;44432;49.786;22.760;2022-07-06T14:19:24;4.20;;;2.30;;
58661;SDS011;44432;49.786;22.760;2022-07-06T14:21:54;4.30;;;2.20;;
58661;SDS011;44432;49.786;22.760;2022-07-06T14:24:26;4.10;;;2.50;;
58661;SDS011;44432;49.786;22.760;2022-07-06T14:26:56;3.10;;;2.50;;
58661;SDS011;44432;49.786;22.760;2022-07-06T14:29:27;2.80;;;2.30;;
58661;SDS011;44432;49.786;22.760;2022-07-06T14:31:57;2.60;;;2.10;;
58661;SDS011;44432;49.786;22.760;2022-07-06T14:34:28;4.50;;;3.20;;
58661;SDS011;44432;49.786;22.760;2022-07-06T14:36:58;2.90;;;2.20;;
58661;SDS011;44432;49.786;22.760;2022-07-06T14:39:29;2.40;;;2.20;;
58661;SDS011;44432;49.786;22.760;2022-07-06T14:41:59;4.20;;;2.00;;
58661;SDS011;44432;49.786;22.760;2022-07-06T14:44:30;2.50;;;1.90;;
58661;SDS011;44432;49.786;22.760;2022-07-06T14:47:01;3.70;;;2.20;;
58661;SDS011;44432;49.786;22.760;2022-07-06T14:49:32;2.10;;;1.90;;
58661;SDS011;44432;49.786;22.760;2022-07-06T14:52:03;2.50;;;1.70;;
58661;SDS011;44432;49.786;22.760;2022-07-06T14:54:34;4.60;;;2.10;;
58661;SDS011;44432;49.786;22.760;2022-07-06T14:57:05;3.20;;;2.10;;
58661;SDS011;44432;49.786;22.760;2022-07-06T14:59:36;10.00;;;8.20;;
58661;SDS011;44432;49.786;22.760;2022-07-06T15:02:07;4.90;;;2.10;;
58661;SDS011;44432;49.786;22.760;2022-07-06T15:04:37;2.60;;;2.00;;